Time;durP1;ratioP1;P1;durP2;ratioP2;P2;SDS_P1;SDS_P2;PMS_P1;PMS_P2;Temp;Humidity;BMP_temperature;BMP_pressure;BME280_temperature;BME280_humidity;BME280_pressure;Samples;Min_cycle;Max_cycle;Signal;HPM_P1;HPM_P2
2022/03/07 00:02:13;;;;;;;33.98;17.00;;;;;;;0.02;53.69;99690.20;1767338;81;21002;-40
2022/03/07 00:04:41;;;;;;;33.70;15.95;;;;;;;0.03;54.43;99694.94;1767432;81;21041;-39
2022/03/07 00:07:07;;;;;;;34.13;16.20;;;;;;;0.07;53.99;99694.04;1767305;81;21050;-39
2022/03/07 00:09:33;;;;;;;31.23;16.67;;;;;;;0.02;54.21;99689.33;1767619;81;21045;-40
2022/03/07 00:11:59;;;;;;;32.15;16.42;;;;;;;0.04;54.46;99697.92;1767435;81;21002;-40
2022/03/07 00:14:25;;;;;;;32.05;15.83;;;;;;;0.00;55.33;99693.24;1767360;81;21520;-39
2022/03/07 00:16:50;;;;;;;34.70;16.35;;;;;;;0.10;53.90;99690.16;1767456;81;21038;-40
2022/03/07 00:19:16;;;;;;;33.70;15.53;;;;;;;-0.01;55.64;99683.75;1767281;81;21105;-40
2022/03/07 00:21:42;;;;;;;34.80;15.88;;;;;;;0.05;55.79;99691.46;1767450;81;21002;-39
2022/03/07 00:24:08;;;;;;;32.00;16.62;;;;;;;0.11;55.31;99686.27;1767447;81;20991;-39
2022/03/07 00:26:35;;;;;;;27.40;14.47;;;;;;;0.15;56.62;99690.55;1767376;81;21038;-39
2022/03/07 00:29:01;;;;;;;33.83;15.98;;;;;;;0.19;54.95;99684.92;1767309;81;20997;-39
2022/03/07 00:31:27;;;;;;;33.45;15.98;;;;;;;0.17;54.67;99682.78;1767327;81;21006;-39
2022/03/07 00:33:53;;;;;;;35.75;17.05;;;;;;;0.12;56.19;99683.23;1767319;81;21016;-39
2022/03/07 00:36:20;;;;;;;38.23;16.40;;;;;;;0.08;56.23;99682.84;1764676;81;21038;-39
2022/03/07 00:38:47;;;;;;;34.80;14.70;;;;;;;0.13;56.06;99691.44;1763660;81;20998;-39
2022/03/07 00:41:13;;;;;;;38.45;17.50;;;;;;;0.09;57.13;99691.89;1763715;81;21006;-39
2022/03/07 00:43:39;;;;;;;30.88;14.68;;;;;;;0.14;56.59;99700.89;1763665;81;21471;-39
2022/03/07 00:46:05;;;;;;;29.02;14.53;;;;;;;0.17;55.99;99698.30;1763605;81;21007;-39
2022/03/07 00:48:31;;;;;;;28.00;14.90;;;;;;;0.16;56.18;99696.56;1763502;81;20986;-39
2022/03/07 00:50:57;;;;;;;28.98;15.60;;;;;;;0.20;55.37;99697.00;1763531;81;21044;-39
2022/03/07 00:53:26;;;;;;;31.25;14.85;;;;;;;0.17;57.53;99697.00;1763547;81;20967;-39
2022/03/07 00:55:53;;;;;;;23.52;13.20;;;;;;;0.21;56.81;99697.40;1763510;81;21013;-39
2022/03/07 00:58:22;;;;;;;24.37;12.03;;;;;;;0.19;57.17;99699.14;1763653;81;20998;-39
2022/03/07 01:00:48;;;;;;;24.75;12.80;;;;;;;0.30;55.55;99688.28;1763495;81;21002;-39
2022/03/07 01:03:14;;;;;;;28.70;12.88;;;;;;;0.12;57.03;99687.12;1763652;81;20993;-39
2022/03/07 01:05:41;;;;;;;29.00;13.38;;;;;;;0.11;56.57;99690.15;1763578;81;20998;-39
2022/03/07 01:08:08;;;;;;;26.42;11.75;;;;;;;0.14;56.31;99686.67;1763657;81;21003;-39
2022/03/07 01:10:35;;;;;;;29.37;12.50;;;;;;;0.10;57.57;99678.52;1763780;81;21007;-39
2022/03/07 01:13:03;;;;;;;23.75;12.37;;;;;;;0.10;57.57;99678.52;1763682;81;21001;-39
2022/03/07 01:15:28;;;;;;;29.63;13.43;;;;;;;0.14;56.98;99680.20;1763634;81;20974;-39
2022/03/07 01:17:54;;;;;;;24.30;13.00;;;;;;;0.07;57.97;99676.79;1763581;81;20994;-39
2022/03/07 01:20:21;;;;;;;25.02;12.70;;;;;;;0.09;58.39;99675.08;1763587;81;21466;-40
2022/03/07 01:22:47;;;;;;;24.18;12.82;;;;;;;0.16;57.11;99669.41;1763518;81;21010;-39
2022/03/07 01:25:13;;;;;;;28.40;14.20;;;;;;;0.19;57.36;99665.52;1763554;81;21005;-40
2022/03/07 01:27:40;;;;;;;30.48;13.80;;;;;;;0.18;58.54;99669.84;1763494;81;20999;-39
2022/03/07 01:30:07;;;;;;;30.63;14.30;;;;;;;0.17;58.76;99663.38;1763712;81;21042;-39
2022/03/07 01:32:33;;;;;;;26.87;13.93;;;;;;;0.19;57.79;99659.91;1763752;81;20971;-40
2022/03/07 01:34:59;;;;;;;37.83;15.53;;;;;;;0.13;58.78;99657.81;1763605;81;21006;-39
2022/03/07 01:37:25;;;;;;;31.33;13.85;;;;;;;0.15;59.32;99656.92;1763458;81;21595;-39
2022/03/07 01:39:51;;;;;;;30.72;13.85;;;;;;;0.12;59.31;99658.67;1763439;81;20979;-44
2022/03/07 01:42:16;;;;;;;33.58;14.50;;;;;;;0.13;59.74;99657.37;1763528;81;21006;-39
2022/03/07 01:44:42;;;;;;;29.42;14.58;;;;;;;0.19;58.77;99649.55;1763463;81;21003;-39
2022/03/07 01:47:08;;;;;;;23.38;12.43;;;;;;;0.16;59.41;99646.13;1763476;81;21062;-39
2022/03/07 01:49:34;;;;;;;25.45;13.30;;;;;;;0.16;59.25;99643.14;1763470;81;21070;-39
2022/03/07 01:52:01;;;;;;;26.62;13.15;;;;;;;0.18;59.23;99637.92;1763476;81;21038;-39
2022/03/07 01:54:27;;;;;;;29.60;12.75;;;;;;;0.22;59.56;99636.17;1763482;81;21046;-39
2022/03/07 01:56:54;;;;;;;30.32;13.32;;;;;;;0.29;58.81;99645.20;1763560;81;21460;-39
2022/03/07 01:59:23;;;;;;;;;;;;;;;0.30;58.64;99640.42;1766201;81;21041;-39
2022/03/07 02:01:50;;;;;;;24.40;12.13;;;;;;;0.26;58.93;99638.73;1763042;81;20098;-39
2022/03/07 02:04:15;;;;;;;28.17;12.58;;;;;;;0.17;59.17;99635.78;1763509;81;20994;-39
2022/03/07 02:06:41;;;;;;;27.00;12.00;;;;;;;0.22;58.94;99636.17;1763587;81;20991;-39
2022/03/07 02:09:09;;;;;;;23.83;12.35;;;;;;;0.23;58.17;99630.14;1763576;81;21826;-39
2022/03/07 02:11:35;;;;;;;23.00;12.68;;;;;;;0.09;59.44;99637.58;1763624;81;20990;-40
2022/03/07 02:14:20;;;;;;;25.55;12.47;;;;;;;0.11;59.63;99634.95;1763475;81;20971;-39
2022/03/07 02:16:46;;;;;;;25.32;11.12;;;;;;;0.10;60.23;99630.67;1746114;81;20998;-39
2022/03/07 02:19:13;;;;;;;29.15;14.25;;;;;;;0.15;59.16;99634.94;1763469;81;20989;-39
2022/03/07 02:21:44;;;;;;;26.97;13.13;;;;;;;0.13;59.63;99633.25;1763614;81;21512;-40
2022/03/07 02:24:11;;;;;;;26.68;13.15;;;;;;;0.17;58.45;99627.17;1763159;81;20998;-39
2022/03/07 02:26:37;;;;;;;30.35;13.70;;;;;;;-0.04;60.52;99630.77;1763552;81;21773;-39
2022/03/07 02:29:03;;;;;;;26.15;13.50;;;;;;;0.03;60.51;99624.67;1763450;81;20974;-39
2022/03/07 02:31:29;;;;;;;26.77;13.43;;;;;;;0.05;60.34;99611.30;1763457;81;20994;-39
2022/03/07 02:33:56;;;;;;;25.92;12.95;;;;;;;0.10;60.77;99619.89;1763757;81;20967;-39
2022/03/07 02:36:22;;;;;;;22.95;12.73;;;;;;;0.16;59.70;99606.93;1765039;81;21587;-39
2022/03/07 02:38:48;;;;;;;33.00;13.48;;;;;;;0.15;60.15;99608.23;1767498;81;20994;-39
2022/03/07 02:41:14;;;;;;;30.45;13.60;;;;;;;0.18;60.50;99603.01;1769158;77;21039;-39
2022/03/07 02:43:40;;;;;;;28.40;13.98;;;;;;;0.23;60.20;99608.16;1741375;81;20982;-39
2022/03/07 02:46:06;;;;;;;29.18;13.32;;;;;;;0.21;59.92;99609.91;1740747;82;21010;-39
2022/03/07 02:48:32;;;;;;;23.90;11.68;;;;;;;0.18;60.13;99608.19;1740767;82;21459;-39
2022/03/07 02:50:58;;;;;;;23.38;13.30;;;;;;;0.23;59.82;99606.42;1740774;82;21023;-40
2022/03/07 02:53:26;;;;;;;27.17;12.73;;;;;;;0.25;59.83;99609.00;1740744;82;20986;-40
2022/03/07 02:55:54;;;;;;;29.12;13.85;;;;;;;0.16;60.47;99603.46;1740618;82;20975;-39
2022/03/07 02:58:20;;;;;;;26.10;13.93;;;;;;;0.20;60.28;99603.88;1740595;82;21464;-39
2022/03/07 03:00:47;;;;;;;26.93;13.05;;;;;;;0.27;59.99;99601.64;1740687;82;20987;-39
2022/03/07 03:03:12;;;;;;;28.38;13.38;;;;;;;0.38;59.05;99597.66;1740860;82;20975;-39
2022/03/07 03:05:38;;;;;;;28.92;14.30;;;;;;;0.33;59.81;99602.05;1740706;82;20982;-39
2022/03/07 03:08:05;;;;;;;26.95;13.72;;;;;;;0.28;59.82;99602.08;1740634;82;20990;-39
2022/03/07 03:10:31;;;;;;;29.25;13.45;;;;;;;0.27;60.18;99599.50;1740634;82;20987;-39
2022/03/07 03:12:57;;;;;;;33.55;15.53;;;;;;;0.34;59.18;99594.25;1740628;81;20986;-39
2022/03/07 03:15:23;;;;;;;36.42;16.32;;;;;;;0.29;60.20;99602.92;1740658;82;20982;-40
2022/03/07 03:17:48;;;;;;;33.80;15.70;;;;;;;0.33;60.02;99602.05;1740702;82;20987;-40
2022/03/07 03:20:15;;;;;;;30.35;13.43;;;;;;;0.44;58.80;99595.45;1740780;82;21495;-40
2022/03/07 03:22:44;;;;;;;31.65;14.95;;;;;;;0.44;59.00;99599.34;1740791;82;21475;-39
2022/03/07 03:25:12;;;;;;;28.52;13.08;;;;;;;0.12;60.39;99600.48;1740655;82;20987;-39
2022/03/07 03:27:39;;;;;;;29.50;14.18;;;;;;;0.24;59.55;99595.63;1740677;82;21030;-39
2022/03/07 03:30:08;;;;;;;32.17;14.25;;;;;;;0.09;60.01;99597.50;1740659;81;20975;-39
2022/03/07 03:32:34;;;;;;;30.10;13.43;;;;;;;0.10;59.86;99602.23;1740641;82;21397;-40
2022/03/07 03:35:00;;;;;;;27.75;13.10;;;;;;;0.06;60.24;99599.25;1740779;82;21018;-39
2022/03/07 03:37:25;;;;;;;31.33;14.15;;;;;;;0.05;59.99;99591.06;1740685;82;21508;-39
2022/03/07 03:39:52;;;;;;;30.97;14.07;;;;;;;-0.06;61.16;99598.45;1740619;82;21011;-40
2022/03/07 03:42:17;;;;;;;34.73;14.30;;;;;;;-0.04;60.82;99605.78;1748577;81;21002;-39
2022/03/07 03:44:43;;;;;;;33.05;13.70;;;;;;;-0.05;60.81;99604.05;1759732;81;21436;-39
2022/03/07 03:47:09;;;;;;;33.90;14.58;;;;;;;0.03;60.26;99603.99;1759656;81;20978;-40
2022/03/07 03:49:35;;;;;;;25.75;13.15;;;;;;;-0.01;61.29;99608.33;1759681;80;21037;-39
2022/03/07 03:52:01;;;;;;;30.10;14.00;;;;;;;0.02;60.52;99602.70;1759708;80;20977;-40
2022/03/07 03:54:27;;;;;;;34.20;14.15;;;;;;;0.02;60.88;99600.13;1759622;81;21574;-39
2022/03/07 03:56:53;;;;;;;23.57;12.28;;;;;;;0.05;61.34;99602.25;1759691;81;21301;-40
2022/03/07 03:59:18;;;;;;;31.60;13.50;;;;;;;0.04;61.01;99606.14;1759716;79;21451;-39
2022/03/07 04:01:45;;;;;;;34.30;14.03;;;;;;;0.00;60.49;99598.87;1759734;81;21535;-39
2022/03/07 04:04:13;;;;;;;24.92;13.20;;;;;;;-0.09;61.68;99610.13;1759635;81;21470;-39
2022/03/07 04:06:40;;;;;;;29.15;11.05;;;;;;;-0.13;61.47;99613.58;1759683;80;21588;-39
2022/03/07 04:09:09;;;;;;;24.80;12.82;;;;;;;-0.10;61.37;99612.72;1759814;81;20986;-40
2022/03/07 04:11:35;;;;;;;27.10;12.05;;;;;;;-0.20;61.97;99619.66;1757792;80;20947;-39
2022/03/07 04:14:00;;;;;;;27.20;12.82;;;;;;;-0.12;61.71;99621.77;1759645;81;20959;-39
2022/03/07 04:16:26;;;;;;;25.85;11.83;;;;;;;-0.23;62.42;99623.58;1759726;81;21467;-39
2022/03/07 04:18:52;;;;;;;22.90;12.25;;;;;;;-0.28;62.69;99622.73;1759589;81;20950;-39
2022/03/07 04:21:19;;;;;;;25.55;11.95;;;;;;;-0.18;61.60;99619.65;1759611;80;20994;-39
2022/03/07 04:23:45;;;;;;;33.80;11.63;;;;;;;-0.20;62.17;99629.99;1759758;81;21425;-39
2022/03/07 04:26:10;;;;;;;36.55;13.03;;;;;;;-0.23;62.08;99620.98;1759604;80;20955;-39
2022/03/07 04:28:36;;;;;;;33.10;12.45;;;;;;;-0.23;62.64;99628.74;1759671;81;20982;-40
2022/03/07 04:31:02;;;;;;;29.15;12.58;;;;;;;-0.22;62.54;99623.98;1759674;81;21482;-39
2022/03/07 04:33:27;;;;;;;28.85;12.33;;;;;;;-0.24;63.24;99618.84;1759641;81;21454;-39
2022/03/07 04:35:53;;;;;;;30.12;12.00;;;;;;;-0.14;61.91;99621.37;1759631;81;21014;-39
2022/03/07 04:38:24;;;;;;;22.60;10.32;;;;;;;-0.23;63.59;99620.98;1759560;81;20942;-39
2022/03/07 04:40:46;;;;;;;;;;;;;;;-0.15;62.35;99623.52;1761585;81;21045;-39
2022/03/07 04:43:12;;;;;;;28.45;11.25;;;;;;;-0.30;64.32;99625.77;1746227;80;20421;-39
2022/03/07 04:45:38;;;;;;;27.93;11.48;;;;;;;-0.25;62.54;99626.16;1740748;82;20955;-39
2022/03/07 04:48:04;;;;;;;24.80;12.05;;;;;;;-0.27;62.37;99623.17;1740772;82;20991;-39
2022/03/07 04:50:30;;;;;;;22.40;11.68;;;;;;;-0.40;63.98;99622.36;1741044;82;20952;-39
2022/03/07 04:52:56;;;;;;;22.02;10.43;;;;;;;-0.39;63.66;99626.67;1740693;81;21539;-39
2022/03/07 04:55:22;;;;;;;25.65;10.70;;;;;;;-0.32;62.97;99631.38;1740811;81;21586;-39
2022/03/07 04:57:48;;;;;;;26.68;10.75;;;;;;;-0.45;63.84;99630.15;1740667;82;20994;-39
2022/03/07 05:00:16;;;;;;;30.55;13.60;;;;;;;-0.46;64.04;99625.83;1740677;82;20980;-39
2022/03/07 05:02:42;;;;;;;30.12;15.68;;;;;;;-0.56;65.69;99624.18;1740699;82;20985;-39
2022/03/07 05:05:08;;;;;;;29.15;13.40;;;;;;;-0.57;65.65;99613.41;1740714;82;20992;-39
2022/03/07 05:07:34;;;;;;;25.60;12.53;;;;;;;-0.63;66.12;99613.45;1740672;82;20991;-39
2022/03/07 05:10:00;;;;;;;24.98;11.48;;;;;;;-0.64;65.66;99610.02;1740738;82;20979;-39
2022/03/07 05:12:26;;;;;;;24.72;11.18;;;;;;;-0.76;67.01;99603.61;1740824;81;21480;-39
2022/03/07 05:14:52;;;;;;;27.73;11.88;;;;;;;-0.73;65.95;99607.89;1740791;82;21464;-39
2022/03/07 05:17:17;;;;;;;29.90;11.57;;;;;;;-0.77;66.61;99607.89;1740801;82;21598;-39
2022/03/07 05:19:45;;;;;;;24.35;11.83;;;;;;;-0.65;65.68;99606.15;1740750;82;20979;-39
2022/03/07 05:22:10;;;;;;;26.50;10.70;;;;;;;-0.71;66.68;99607.04;1740824;82;21014;-39
2022/03/07 05:24:36;;;;;;;22.20;10.63;;;;;;;-0.70;65.20;99601.43;1740795;82;20983;-39
2022/03/07 05:27:02;;;;;;;23.85;11.10;;;;;;;-0.79;66.18;99604.46;1740792;82;21598;-40
2022/03/07 05:29:28;;;;;;;25.55;11.57;;;;;;;-0.84;67.34;99599.75;1740689;82;21019;-39
2022/03/07 05:31:54;;;;;;;21.95;10.30;;;;;;;-0.81;67.30;99601.48;1718105;82;21019;-39
2022/03/07 05:34:20;;;;;;;29.65;11.95;;;;;;;-0.77;65.77;99594.98;1740708;82;21456;-39
2022/03/07 05:36:46;;;;;;;24.18;11.97;;;;;;;-0.80;66.74;99595.02;1740738;81;20979;-39
2022/03/07 05:39:12;;;;;;;27.17;12.40;;;;;;;-0.79;67.40;99595.42;1740741;82;20947;-39
2022/03/07 05:41:38;;;;;;;28.40;11.97;;;;;;;-0.69;66.09;99601.42;1740645;81;20991;-39
2022/03/07 05:44:04;;;;;;;28.52;12.00;;;;;;;-0.73;67.06;99600.99;1777794;80;20988;-39
2022/03/07 05:46:30;;;;;;;23.57;11.22;;;;;;;-0.76;67.14;99611.36;1780171;80;20990;-39
2022/03/07 05:48:57;;;;;;;29.35;12.47;;;;;;;-0.80;67.35;99605.34;1780185;80;21619;-40
2022/03/07 05:51:24;;;;;;;;;;;;;;;-0.81;67.74;99606.64;1782919;80;21019;-40
2022/03/07 05:53:51;;;;;;;31.42;13.68;;;;;;;-0.89;68.66;99597.64;1780430;80;20104;-41
2022/03/07 05:56:18;;;;;;;36.38;15.45;;;;;;;-0.79;68.44;99594.58;1780325;80;20990;-40
2022/03/07 05:58:46;;;;;;;34.05;15.08;;;;;;;-0.69;67.51;99603.13;1780103;80;20990;-40
2022/03/07 06:01:13;;;;;;;31.77;13.60;;;;;;;-0.66;66.79;99597.96;1780186;80;20980;-40
2022/03/07 06:03:39;;;;;;;36.73;15.07;;;;;;;-0.72;66.65;99596.71;1780398;80;21484;-40
2022/03/07 06:06:05;;;;;;;28.38;13.13;;;;;;;-0.72;67.60;99597.56;1780239;80;20968;-40
2022/03/07 06:08:31;;;;;;;34.40;12.78;;;;;;;-0.64;66.42;99598.39;1780174;80;21003;-40
2022/03/07 06:10:57;;;;;;;30.20;13.68;;;;;;;-0.62;66.52;99599.24;1780265;80;21476;-40
2022/03/07 06:13:23;;;;;;;28.92;11.78;;;;;;;-0.65;68.22;99601.83;1780162;80;21483;-40
2022/03/07 06:15:48;;;;;;;27.22;13.35;;;;;;;-0.63;66.70;99607.00;1780275;80;21100;-39
2022/03/07 06:18:14;;;;;;;33.20;13.00;;;;;;;-0.72;68.03;99609.63;1780219;80;20968;-40
2022/03/07 06:20:40;;;;;;;66.00;14.65;;;;;;;-0.69;67.38;99609.17;1780156;80;21011;-40
2022/03/07 06:23:07;;;;;;;25.10;10.85;;;;;;;-0.70;67.13;99616.92;1780180;80;20964;-38
2022/03/07 06:25:34;;;;;;;33.53;11.38;;;;;;;-0.70;67.54;99611.32;1780193;80;21030;-39
2022/03/07 06:28:03;;;;;;;26.00;10.82;;;;;;;-0.79;67.51;99608.34;1780297;80;21638;-39
2022/03/07 06:30:29;;;;;;;25.95;12.18;;;;;;;-0.84;69.07;99601.03;1779939;79;20991;-39
2022/03/07 06:32:54;;;;;;;27.50;12.63;;;;;;;-0.82;69.84;99601.03;1780125;80;20956;-39
2022/03/07 06:35:21;;;;;;;27.75;12.47;;;;;;;-0.75;69.06;99597.56;1780257;80;21519;-39
2022/03/07 06:37:49;;;;;;;28.47;12.63;;;;;;;-0.69;69.05;99594.97;1780143;80;20989;-38
2022/03/07 06:40:16;;;;;;;28.90;12.80;;;;;;;-0.69;69.06;99594.09;1779684;80;21031;-39
2022/03/07 06:42:43;;;;;;;33.20;12.90;;;;;;;-0.65;68.46;99597.11;1774603;80;21448;-39
2022/03/07 06:45:14;;;;;;;26.13;11.97;;;;;;;-0.64;68.63;99598.39;1759753;81;20978;-39
2022/03/07 06:47:40;;;;;;;35.10;14.07;;;;;;;-0.62;68.13;99598.36;1759512;81;20982;-39
2022/03/07 06:50:07;;;;;;;24.25;11.45;;;;;;;-0.57;68.77;99604.37;1759534;81;20998;-39
2022/03/07 06:52:32;;;;;;;26.33;12.00;;;;;;;-0.47;69.22;99605.20;1759776;81;20962;-39
2022/03/07 06:55:11;;;;;;;22.22;11.28;;;;;;;-0.46;68.65;99602.58;1759528;81;21415;-39
2022/03/07 06:57:37;;;;;;;36.55;14.53;;;;;;;-0.51;69.45;99597.90;1733792;81;21300;-40
2022/03/07 07:00:08;;;;;;;30.95;10.75;;;;;;;-0.44;69.70;99599.58;1759526;81;20954;-39
2022/03/07 07:02:34;;;;;;;29.05;10.75;;;;;;;-0.39;68.29;99606.84;1759529;81;20978;-40
2022/03/07 07:05:02;;;;;;;29.72;10.80;;;;;;;-0.36;68.17;99603.41;1759582;81;21543;-40
2022/03/07 07:07:30;;;;;;;26.17;11.08;;;;;;;-0.50;69.64;99598.30;1759510;81;20970;-39
2022/03/07 07:09:55;;;;;;;30.17;11.25;;;;;;;-0.46;69.57;99592.24;1759669;81;21463;-39
2022/03/07 07:12:21;;;;;;;19.85;9.48;;;;;;;-0.36;70.12;99594.77;1759579;81;20967;-39
2022/03/07 07:14:47;;;;;;;25.95;12.25;;;;;;;-0.23;69.78;99587.39;1759497;80;21021;-39
2022/03/07 07:17:13;;;;;;;30.15;11.97;;;;;;;-0.10;69.11;99586.42;1759666;80;20966;-39
2022/03/07 07:19:39;;;;;;;24.90;11.12;;;;;;;-0.04;68.73;99591.98;1759634;79;21026;-39
2022/03/07 07:22:04;;;;;;;24.23;10.18;;;;;;;-0.03;68.54;99601.47;1759676;81;20985;-40
2022/03/07 07:24:32;;;;;;;27.30;10.90;;;;;;;0.01;68.22;99595.39;1759670;81;21010;-39
2022/03/07 07:26:58;;;;;;;19.62;9.53;;;;;;;0.05;68.31;99597.52;1759834;81;20985;-40
2022/03/07 07:29:23;;;;;;;24.43;10.08;;;;;;;0.11;68.19;99617.73;1759592;80;20978;-39
2022/03/07 07:31:51;;;;;;;27.67;10.15;;;;;;;0.12;68.28;99606.95;1759886;80;20958;-40
2022/03/07 07:34:17;;;;;;;17.70;9.30;;;;;;;0.21;67.64;99612.05;1759656;81;21432;-39
2022/03/07 07:36:43;;;;;;;22.58;8.98;;;;;;;0.18;67.77;99618.53;1759713;81;20985;-39
2022/03/07 07:39:09;;;;;;;18.30;9.48;;;;;;;0.14;68.34;99607.80;1759735;80;20967;-39
2022/03/07 07:41:34;;;;;;;16.87;8.70;;;;;;;0.23;67.58;99602.55;1759675;81;20970;-40
2022/03/07 07:44:01;;;;;;;28.55;9.35;;;;;;;0.24;67.82;99602.98;1746465;80;20987;-39
2022/03/07 07:46:27;;;;;;;21.37;9.65;;;;;;;0.15;68.50;99603.91;1740776;82;20986;-39
2022/03/07 07:48:52;;;;;;;21.30;9.10;;;;;;;0.17;68.42;99604.75;1740762;82;20978;-39
2022/03/07 07:51:18;;;;;;;25.25;8.78;;;;;;;0.02;69.50;99597.53;1740861;82;21014;-39
2022/03/07 07:53:44;;;;;;;17.50;8.35;;;;;;;0.06;69.59;99602.69;1740783;82;21468;-39
2022/03/07 07:56:11;;;;;;;29.32;9.95;;;;;;;0.23;68.93;99604.28;1740815;82;21030;-40
2022/03/07 07:58:37;;;;;;;18.92;8.95;;;;;;;0.30;69.03;99602.91;1740819;81;21002;-39
2022/03/07 08:01:04;;;;;;;17.73;9.33;;;;;;;0.24;69.58;99605.98;1740999;82;20973;-40
2022/03/07 08:03:30;;;;;;;21.77;9.43;;;;;;;0.29;69.57;99605.09;1740860;82;20955;-40
2022/03/07 08:05:56;;;;;;;16.25;8.70;;;;;;;0.32;69.44;99608.93;1740852;82;21377;-40
2022/03/07 08:08:22;;;;;;;12.03;7.75;;;;;;;0.28;69.68;99604.66;1740767;82;21472;-40
2022/03/07 08:10:47;;;;;;;19.45;8.50;;;;;;;0.31;69.71;99605.94;1740809;82;21448;-40
2022/03/07 08:13:13;;;;;;;22.05;8.50;;;;;;;0.36;69.15;99610.64;1740755;82;20991;-40
2022/03/07 08:15:40;;;;;;;18.30;7.72;;;;;;;0.43;69.15;99610.13;1740757;82;20976;-39
2022/03/07 08:18:06;;;;;;;16.20;8.28;;;;;;;0.44;69.55;99610.56;1740715;82;20986;-39
2022/03/07 08:20:33;;;;;;;15.97;8.07;;;;;;;0.56;69.46;99607.88;1741012;82;20948;-39
2022/03/07 08:22:59;;;;;;;18.60;6.92;;;;;;;0.80;68.69;99603.32;1740836;82;21019;-39
2022/03/07 08:25:26;;;;;;;17.27;7.80;;;;;;;1.07;67.56;99598.69;1740703;82;20978;-40
2022/03/07 08:27:53;;;;;;;9.53;6.42;;;;;;;1.06;67.14;99596.55;1740885;82;20975;-40
2022/03/07 08:30:23;;;;;;;16.90;7.20;;;;;;;1.21;67.23;99601.12;1740954;82;21475;-40
2022/03/07 08:32:50;;;;;;;13.30;6.83;;;;;;;1.43;67.00;99599.97;1740756;82;20975;-40
2022/03/07 08:35:16;;;;;;;13.05;6.45;;;;;;;1.74;66.00;99598.25;1740670;81;21460;-39
2022/03/07 08:37:46;;;;;;;10.40;6.10;;;;;;;1.87;65.26;99593.32;1740752;82;20987;-40
2022/03/07 08:40:15;;;;;;;15.65;5.92;;;;;;;1.86;64.98;99596.78;1740647;82;20947;-40
2022/03/07 08:42:41;;;;;;;13.53;6.83;;;;;;;2.03;64.74;99600.41;1741219;81;21523;-41
2022/03/07 08:45:09;;;;;;;13.30;6.65;;;;;;;2.16;64.30;99591.98;1759691;80;20958;-40
2022/03/07 08:47:37;;;;;;;10.15;6.10;;;;;;;2.24;63.91;99587.54;1759749;81;20975;-40
2022/03/07 08:50:06;;;;;;;8.90;5.15;;;;;;;2.53;63.80;99586.19;1759676;81;21485;-40
2022/03/07 08:52:32;;;;;;;13.48;5.67;;;;;;;2.78;63.33;99581.83;1759705;80;21474;-40
2022/03/07 08:54:58;;;;;;;12.60;5.40;;;;;;;2.78;62.49;99578.78;1759749;81;20954;-41
2022/03/07 08:57:24;;;;;;;10.58;5.40;;;;;;;2.76;61.79;99583.15;1759653;80;20982;-40
2022/03/07 08:59:49;;;;;;;11.22;5.62;;;;;;;2.94;62.02;99587.59;1759618;81;21456;-41
2022/03/07 09:02:15;;;;;;;13.00;5.53;;;;;;;3.22;61.31;99579.66;1759721;81;21483;-41
2022/03/07 09:04:41;;;;;;;12.30;5.80;;;;;;;3.62;60.56;99574.91;1759728;81;20986;-41
2022/03/07 09:07:08;;;;;;;10.88;4.83;;;;;;;3.96;59.43;99571.50;1759431;80;20994;-41
2022/03/07 09:09:34;;;;;;;19.30;6.87;;;;;;;4.01;58.39;99570.11;1759829;79;20959;-40
2022/03/07 09:12:02;;;;;;;15.05;5.87;;;;;;;4.15;58.47;99571.94;1759590;81;20998;-40
2022/03/07 09:14:28;;;;;;;10.70;5.70;;;;;;;4.33;58.35;99567.14;1759640;79;21029;-41
2022/03/07 09:16:54;;;;;;;14.58;4.97;;;;;;;4.63;56.95;99575.08;1759735;80;21030;-40
2022/03/07 09:19:20;;;;;;;12.45;5.70;;;;;;;4.78;56.33;99579.44;1759551;81;20963;-39
2022/03/07 09:21:46;;;;;;;12.15;6.70;;;;;;;5.02;56.04;99573.57;1759476;81;20990;-40
2022/03/07 09:24:12;;;;;;;12.13;5.65;;;;;;;5.46;56.08;99577.98;1759735;81;20982;-44
2022/03/07 09:26:38;;;;;;;20.10;5.92;;;;;;;5.72;53.53;99564.97;1759693;81;20986;-45
2022/03/07 09:29:13;;;;;;;8.73;4.78;;;;;;;6.20;53.74;99575.69;1759760;80;20994;-41
2022/03/07 09:31:40;;;;;;;10.25;5.20;;;;;;;6.30;51.48;99570.57;1759610;81;21641;-41
2022/03/07 09:34:05;;;;;;;12.28;5.58;;;;;;;6.37;50.10;99570.77;1759565;79;20997;-42
2022/03/07 09:36:31;;;;;;;7.83;5.75;;;;;;;6.19;50.65;99563.55;1759615;80;21038;-41
2022/03/07 09:38:57;;;;;;;16.40;5.85;;;;;;;6.21;52.59;99555.21;1759459;79;20979;-40
2022/03/07 09:44:05;;;;;;;13.95;6.85;;;;;;;5.26;52.32;99564.22;1801233;79;22902;-39
2022/03/07 09:46:31;;;;;;;14.23;7.50;;;;;;;5.24;52.80;99560.34;1761686;80;21509;-41
2022/03/07 09:48:57;;;;;;;12.65;6.92;;;;;;;4.89;53.05;99553.05;1761026;80;20976;-39
2022/03/07 09:51:23;;;;;;;24.60;7.97;;;;;;;4.46;53.93;99558.56;1761792;81;21092;-40
2022/03/07 09:53:48;;;;;;;11.88;7.55;;;;;;;4.38;54.43;99566.59;1761807;80;20979;-40
2022/03/07 09:56:14;;;;;;;11.80;7.03;;;;;;;4.31;54.52;99567.63;1761831;80;21038;-40
2022/03/07 09:58:40;;;;;;;11.57;7.33;;;;;;;4.31;54.76;99562.00;1761821;81;21037;-39
2022/03/07 10:01:10;;;;;;;14.23;6.83;;;;;;;4.40;54.78;99563.48;1761808;81;20957;-41
2022/03/07 10:03:36;;;;;;;10.13;6.50;;;;;;;4.46;54.69;99568.98;1761493;80;21007;-39
2022/03/07 10:06:14;;;;;;;19.98;7.17;;;;;;;4.43;54.65;99559.52;1761810;80;21038;-40
2022/03/07 10:08:56;;;;;;;9.85;6.45;;;;;;;4.35;55.21;99571.44;1761549;80;20987;-40
2022/03/07 10:11:23;;;;;;;14.30;6.35;;;;;;;4.32;55.32;99572.81;1761849;81;21019;-40
2022/03/07 10:13:56;;;;;;;12.82;7.47;;;;;;;4.34;55.82;99570.17;1762035;80;21031;-40
2022/03/07 10:16:32;;;;;;;13.35;6.10;;;;;;;4.47;55.69;99575.46;1754047;80;22205;-41
2022/03/07 10:18:54;;;;;;;12.28;6.72;;;;;;;4.49;55.33;99574.13;1757826;80;21563;-40
2022/03/07 10:21:24;;;;;;;12.60;6.60;;;;;;;4.15;55.75;99582.80;1761690;80;21558;-40
2022/03/07 10:23:55;;;;;;;10.03;6.40;;;;;;;4.26;55.72;99578.60;1760553;80;20983;-40
2022/03/07 10:26:22;;;;;;;9.95;6.25;;;;;;;4.27;55.98;99577.72;1761718;80;21044;-41
2022/03/07 10:28:54;;;;;;;11.10;6.35;;;;;;;4.36;55.66;99577.48;1761893;80;20998;-41
2022/03/07 10:31:21;;;;;;;23.18;7.12;;;;;;;4.11;56.43;99583.32;1755761;80;20983;-39
2022/03/07 10:34:00;;;;;;;12.63;7.05;;;;;;;4.26;56.31;99591.62;1748831;81;20987;-40
2022/03/07 10:36:36;;;;;;;24.90;7.60;;;;;;;4.00;57.17;99586.60;1761504;80;21046;-42
2022/03/07 10:39:09;;;;;;;12.75;7.70;;;;;;;4.07;56.85;99580.81;1760864;81;21031;-40
2022/03/07 10:41:38;;;;;;;71.67;9.75;;;;;;;4.03;57.07;99577.43;1761697;80;20998;-40
2022/03/07 10:44:07;;;;;;;10.38;6.80;;;;;;;4.09;57.27;99579.88;1761636;80;21108;-40
2022/03/07 10:46:34;;;;;;;15.03;7.90;;;;;;;4.18;57.25;99577.08;1760923;81;21034;-40
2022/03/07 10:49:00;;;;;;;20.97;9.48;;;;;;;4.14;57.36;99570.21;1761155;81;21038;-41
2022/03/07 10:51:26;;;;;;;19.23;8.88;;;;;;;4.10;57.61;99571.64;1760557;81;21062;-41
2022/03/07 10:53:53;;;;;;;13.98;8.05;;;;;;;4.09;58.02;99569.46;1760743;80;21449;-41
2022/03/07 10:56:21;;;;;;;12.75;8.50;;;;;;;4.19;57.65;99564.45;1761717;81;21516;-42
2022/03/07 10:58:48;;;;;;;;;;;;;;;4.21;57.77;99554.85;1764161;81;21034;-40
2022/03/07 11:01:15;;;;;;;15.50;7.97;;;;;;;4.10;58.20;99564.68;1761668;81;20136;-41
2022/03/07 11:03:41;;;;;;;12.53;8.00;;;;;;;4.36;57.71;99560.56;1744546;80;21842;-41
2022/03/07 11:06:07;;;;;;;25.70;10.38;;;;;;;4.17;58.07;99555.83;1761495;81;20987;-40
2022/03/07 11:08:33;;;;;;;19.05;9.50;;;;;;;4.17;58.45;99549.78;1761213;81;21007;-41
2022/03/07 11:11:01;;;;;;;14.00;8.48;;;;;;;4.43;57.79;99549.95;1759465;81;21561;-41
2022/03/07 11:13:30;;;;;;;13.53;8.38;;;;;;;4.53;57.24;99547.97;1761409;81;20975;-41
2022/03/07 11:15:59;;;;;;;13.03;8.93;;;;;;;4.61;57.15;99542.55;1761353;80;21015;-40
2022/03/07 11:18:26;;;;;;;15.08;8.48;;;;;;;4.69;56.99;99541.03;1761449;81;21539;-41
2022/03/07 11:20:55;;;;;;;16.17;8.80;;;;;;;4.52;57.21;99544.10;1761694;81;20979;-41
2022/03/07 11:23:24;;;;;;;11.33;8.28;;;;;;;4.58;57.65;99558.25;1760656;81;21070;-41
2022/03/07 11:25:52;;;;;;;19.82;9.13;;;;;;;4.65;57.58;99540.72;1769745;80;21014;-41
2022/03/07 11:28:19;;;;;;;18.15;10.05;;;;;;;4.74;57.27;99556.10;1793163;79;21045;-41